sensor_id;sensor_type;location;lat;lon;timestamp;P1;durP1;ratioP1;P2;durP2;ratioP2
67768;SDS011;54569;52.018;5.584;2022-11-20T00:00:44;14.45;;;10.02;;
67768;SDS011;54569;52.018;5.584;2022-11-20T00:03:10;13.57;;;9.57;;
67768;SDS011;54569;52.018;5.584;2022-11-20T00:05:35;13.40;;;9.02;;
67768;SDS011;54569;52.018;5.584;2022-11-20T00:08:01;14.10;;;9.68;;
67768;SDS011;54569;52.018;5.584;2022-11-20T00:10:26;19.55;;;11.23;;
67768;SDS011;54569;52.018;5.584;2022-11-20T00:12:52;16.02;;;10.73;;
67768;SDS011;54569;52.018;5.584;2022-11-20T00:15:18;16.10;;;10.77;;
67768;SDS011;54569;52.018;5.584;2022-11-20T00:17:43;15.88;;;11.02;;
67768;SDS011;54569;52.018;5.584;2022-11-20T00:20:09;13.82;;;9.80;;
67768;SDS011;54569;52.018;5.584;2022-11-20T00:22:35;17.80;;;10.98;;
67768;SDS011;54569;52.018;5.584;2022-11-20T00:25:01;14.55;;;9.95;;
67768;SDS011;54569;52.018;5.584;2022-11-20T00:27:27;15.25;;;9.80;;
67768;SDS011;54569;52.018;5.584;2022-11-20T00:29:52;14.30;;;10.43;;
67768;SDS011;54569;52.018;5.584;2022-11-20T00:32:18;16.75;;;10.32;;
67768;SDS011;54569;52.018;5.584;2022-11-20T00:34:44;17.23;;;10.60;;
67768;SDS011;54569;52.018;5.584;2022-11-20T00:37:09;18.15;;;11.45;;
67768;SDS011;54569;52.018;5.584;2022-11-20T00:39:35;18.88;;;11.90;;
67768;SDS011;54569;52.018;5.584;2022-11-20T00:42:00;18.95;;;12.07;;
67768;SDS011;54569;52.018;5.584;2022-11-20T00:44:26;19.05;;;12.30;;
67768;SDS011;54569;52.018;5.584;2022-11-20T00:46:52;17.13;;;11.77;;
67768;SDS011;54569;52.018;5.584;2022-11-20T00:49:17;20.95;;;13.10;;
67768;SDS011;54569;52.018;5.584;2022-11-20T00:51:43;16.23;;;10.80;;
67768;SDS011;54569;52.018;5.584;2022-11-20T00:54:09;18.90;;;11.88;;
67768;SDS011;54569;52.018;5.584;2022-11-20T00:56:35;16.63;;;10.80;;
67768;SDS011;54569;52.018;5.584;2022-11-20T00:59:00;18.60;;;11.85;;
67768;SDS011;54569;52.018;5.584;2022-11-20T01:01:26;22.33;;;12.98;;
67768;SDS011;54569;52.018;5.584;2022-11-20T01:03:55;18.13;;;11.65;;
67768;SDS011;54569;52.018;5.584;2022-11-20T01:06:23;18.20;;;11.70;;
67768;SDS011;54569;52.018;5.584;2022-11-20T01:08:50;16.92;;;12.10;;
67768;SDS011;54569;52.018;5.584;2022-11-20T01:11:20;19.60;;;12.70;;
67768;SDS011;54569;52.018;5.584;2022-11-20T01:13:48;16.95;;;11.68;;
67768;SDS011;54569;52.018;5.584;2022-11-20T01:16:18;16.38;;;10.93;;
67768;SDS011;54569;52.018;5.584;2022-11-20T01:18:45;19.80;;;11.93;;
67768;SDS011;54569;52.018;5.584;2022-11-20T01:23:45;20.58;;;12.98;;
67768;SDS011;54569;52.018;5.584;2022-11-20T01:26:13;19.15;;;12.65;;
67768;SDS011;54569;52.018;5.584;2022-11-20T01:28:41;20.85;;;12.70;;
67768;SDS011;54569;52.018;5.584;2022-11-20T01:31:15;22.05;;;12.75;;
67768;SDS011;54569;52.018;5.584;2022-11-20T01:33:45;21.63;;;13.98;;
67768;SDS011;54569;52.018;5.584;2022-11-20T01:36:14;23.10;;;13.85;;
67768;SDS011;54569;52.018;5.584;2022-11-20T01:38:40;18.83;;;11.77;;
67768;SDS011;54569;52.018;5.584;2022-11-20T01:41:07;19.30;;;11.52;;
67768;SDS011;54569;52.018;5.584;2022-11-20T01:43:33;20.23;;;12.43;;
67768;SDS011;54569;52.018;5.584;2022-11-20T01:46:04;19.95;;;12.02;;
67768;SDS011;54569;52.018;5.584;2022-11-20T01:48:42;18.45;;;11.60;;
67768;SDS011;54569;52.018;5.584;2022-11-20T01:51:29;16.48;;;11.23;;
67768;SDS011;54569;52.018;5.584;2022-11-20T01:54:05;17.85;;;11.43;;
67768;SDS011;54569;52.018;5.584;2022-11-20T01:56:36;16.60;;;11.20;;
67768;SDS011;54569;52.018;5.584;2022-11-20T01:59:04;21.40;;;13.55;;
67768;SDS011;54569;52.018;5.584;2022-11-20T02:01:32;17.45;;;11.90;;
67768;SDS011;54569;52.018;5.584;2022-11-20T02:03:58;19.98;;;12.65;;
67768;SDS011;54569;52.018;5.584;2022-11-20T02:06:32;19.52;;;12.13;;
67768;SDS011;54569;52.018;5.584;2022-11-20T02:09:08;21.25;;;13.80;;
67768;SDS011;54569;52.018;5.584;2022-11-20T02:11:34;20.25;;;12.27;;
67768;SDS011;54569;52.018;5.584;2022-11-20T02:14:00;15.25;;;10.98;;
67768;SDS011;54569;52.018;5.584;2022-11-20T02:16:33;17.65;;;11.85;;
67768;SDS011;54569;52.018;5.584;2022-11-20T02:19:06;19.52;;;11.43;;
67768;SDS011;54569;52.018;5.584;2022-11-20T02:21:37;18.85;;;11.05;;
67768;SDS011;54569;52.018;5.584;2022-11-20T02:24:11;17.40;;;11.50;;
67768;SDS011;54569;52.018;5.584;2022-11-20T02:26:45;14.57;;;10.35;;
67768;SDS011;54569;52.018;5.584;2022-11-20T02:29:18;16.92;;;11.73;;
67768;SDS011;54569;52.018;5.584;2022-11-20T02:31:48;14.88;;;10.40;;
67768;SDS011;54569;52.018;5.584;2022-11-20T02:34:14;20.55;;;11.60;;
67768;SDS011;54569;52.018;5.584;2022-11-20T02:36:40;16.55;;;11.80;;
67768;SDS011;54569;52.018;5.584;2022-11-20T02:39:06;17.70;;;11.35;;
67768;SDS011;54569;52.018;5.584;2022-11-20T02:41:34;20.95;;;11.95;;
67768;SDS011;54569;52.018;5.584;2022-11-20T02:44:01;21.20;;;11.75;;
67768;SDS011;54569;52.018;5.584;2022-11-20T02:46:28;19.73;;;11.18;;
67768;SDS011;54569;52.018;5.584;2022-11-20T02:48:54;16.08;;;10.75;;
67768;SDS011;54569;52.018;5.584;2022-11-20T02:51:20;17.65;;;10.30;;
67768;SDS011;54569;52.018;5.584;2022-11-20T02:53:46;17.52;;;11.88;;
67768;SDS011;54569;52.018;5.584;2022-11-20T02:56:12;16.48;;;10.88;;
67768;SDS011;54569;52.018;5.584;2022-11-20T02:58:38;20.02;;;11.30;;
67768;SDS011;54569;52.018;5.584;2022-11-20T03:01:04;18.77;;;11.82;;
67768;SDS011;54569;52.018;5.584;2022-11-20T03:03:29;14.68;;;11.25;;
67768;SDS011;54569;52.018;5.584;2022-11-20T03:05:55;16.90;;;10.90;;
67768;SDS011;54569;52.018;5.584;2022-11-20T03:08:23;19.50;;;12.70;;
67768;SDS011;54569;52.018;5.584;2022-11-20T03:10:49;18.70;;;11.13;;
67768;SDS011;54569;52.018;5.584;2022-11-20T03:13:14;17.92;;;11.52;;
67768;SDS011;54569;52.018;5.584;2022-11-20T03:15:40;15.07;;;10.27;;
67768;SDS011;54569;52.018;5.584;2022-11-20T03:18:05;15.20;;;10.90;;
67768;SDS011;54569;52.018;5.584;2022-11-20T03:20:32;16.63;;;10.93;;
67768;SDS011;54569;52.018;5.584;2022-11-20T03:22:58;17.13;;;11.20;;
67768;SDS011;54569;52.018;5.584;2022-11-20T03:25:25;18.17;;;11.50;;
67768;SDS011;54569;52.018;5.584;2022-11-20T03:27:50;19.67;;;12.00;;
67768;SDS011;54569;52.018;5.584;2022-11-20T03:30:16;15.98;;;10.85;;
67768;SDS011;54569;52.018;5.584;2022-11-20T03:32:42;17.35;;;11.10;;
67768;SDS011;54569;52.018;5.584;2022-11-20T03:35:07;17.70;;;10.75;;
67768;SDS011;54569;52.018;5.584;2022-11-20T03:37:33;18.55;;;10.57;;
67768;SDS011;54569;52.018;5.584;2022-11-20T03:39:59;18.42;;;10.98;;
67768;SDS011;54569;52.018;5.584;2022-11-20T03:42:25;17.88;;;10.50;;
67768;SDS011;54569;52.018;5.584;2022-11-20T03:45:09;16.93;;;11.13;;
67768;SDS011;54569;52.018;5.584;2022-11-20T03:47:34;16.65;;;10.45;;
67768;SDS011;54569;52.018;5.584;2022-11-20T03:50:00;16.98;;;10.48;;
67768;SDS011;54569;52.018;5.584;2022-11-20T03:52:26;16.42;;;10.48;;
67768;SDS011;54569;52.018;5.584;2022-11-20T03:54:52;16.60;;;11.30;;
67768;SDS011;54569;52.018;5.584;2022-11-20T03:57:17;17.58;;;10.07;;
67768;SDS011;54569;52.018;5.584;2022-11-20T03:59:43;18.33;;;11.63;;
67768;SDS011;54569;52.018;5.584;2022-11-20T04:02:08;15.35;;;10.50;;
67768;SDS011;54569;52.018;5.584;2022-11-20T04:04:34;22.25;;;11.38;;
67768;SDS011;54569;52.018;5.584;2022-11-20T04:07:00;16.48;;;11.50;;
67768;SDS011;54569;52.018;5.584;2022-11-20T04:09:25;17.30;;;10.80;;
67768;SDS011;54569;52.018;5.584;2022-11-20T04:11:51;15.55;;;10.95;;
67768;SDS011;54569;52.018;5.584;2022-11-20T04:14:16;14.88;;;10.18;;
67768;SDS011;54569;52.018;5.584;2022-11-20T04:16:42;17.95;;;11.77;;
67768;SDS011;54569;52.018;5.584;2022-11-20T04:19:12;17.80;;;10.35;;
67768;SDS011;54569;52.018;5.584;2022-11-20T04:21:39;13.13;;;9.10;;
67768;SDS011;54569;52.018;5.584;2022-11-20T04:24:05;14.65;;;8.98;;
67768;SDS011;54569;52.018;5.584;2022-11-20T04:26:31;16.20;;;10.32;;
67768;SDS011;54569;52.018;5.584;2022-11-20T04:28:58;20.10;;;11.73;;
67768;SDS011;54569;52.018;5.584;2022-11-20T04:31:24;16.63;;;11.20;;
67768;SDS011;54569;52.018;5.584;2022-11-20T04:33:52;15.75;;;10.63;;
67768;SDS011;54569;52.018;5.584;2022-11-20T04:36:18;14.13;;;10.05;;
67768;SDS011;54569;52.018;5.584;2022-11-20T04:38:45;13.82;;;9.88;;
67768;SDS011;54569;52.018;5.584;2022-11-20T04:41:17;14.38;;;9.38;;
67768;SDS011;54569;52.018;5.584;2022-11-20T04:43:47;15.82;;;9.77;;
67768;SDS011;54569;52.018;5.584;2022-11-20T04:46:14;17.05;;;10.00;;
67768;SDS011;54569;52.018;5.584;2022-11-20T04:48:41;15.50;;;10.57;;
67768;SDS011;54569;52.018;5.584;2022-11-20T04:51:07;15.68;;;10.25;;
67768;SDS011;54569;52.018;5.584;2022-11-20T04:53:32;15.55;;;9.38;;
67768;SDS011;54569;52.018;5.584;2022-11-20T04:56:03;15.98;;;10.38;;
67768;SDS011;54569;52.018;5.584;2022-11-20T04:58:30;18.15;;;10.10;;
67768;SDS011;54569;52.018;5.584;2022-11-20T05:01:03;13.82;;;9.77;;
67768;SDS011;54569;52.018;5.584;2022-11-20T05:03:31;14.45;;;9.55;;
67768;SDS011;54569;52.018;5.584;2022-11-20T05:05:59;15.43;;;10.18;;
67768;SDS011;54569;52.018;5.584;2022-11-20T05:08:26;16.23;;;10.18;;
67768;SDS011;54569;52.018;5.584;2022-11-20T05:10:52;16.27;;;10.20;;
67768;SDS011;54569;52.018;5.584;2022-11-20T05:13:18;19.85;;;10.32;;
67768;SDS011;54569;52.018;5.584;2022-11-20T05:15:43;16.35;;;10.50;;
67768;SDS011;54569;52.018;5.584;2022-11-20T05:18:09;17.52;;;10.10;;
67768;SDS011;54569;52.018;5.584;2022-11-20T05:20:34;13.82;;;9.27;;
67768;SDS011;54569;52.018;5.584;2022-11-20T05:23:01;14.63;;;9.40;;
67768;SDS011;54569;52.018;5.584;2022-11-20T05:25:28;15.52;;;10.77;;
67768;SDS011;54569;52.018;5.584;2022-11-20T05:27:54;20.88;;;11.63;;
67768;SDS011;54569;52.018;5.584;2022-11-20T05:30:19;16.88;;;10.57;;
67768;SDS011;54569;52.018;5.584;2022-11-20T05:32:45;18.45;;;10.80;;
67768;SDS011;54569;52.018;5.584;2022-11-20T05:35:10;16.85;;;11.77;;
67768;SDS011;54569;52.018;5.584;2022-11-20T05:37:36;15.52;;;10.88;;
67768;SDS011;54569;52.018;5.584;2022-11-20T05:40:02;19.65;;;13.05;;
67768;SDS011;54569;52.018;5.584;2022-11-20T05:42:30;20.13;;;11.45;;
67768;SDS011;54569;52.018;5.584;2022-11-20T05:44:59;19.05;;;11.13;;
67768;SDS011;54569;52.018;5.584;2022-11-20T05:47:26;16.50;;;11.55;;
67768;SDS011;54569;52.018;5.584;2022-11-20T05:49:53;18.98;;;11.23;;
67768;SDS011;54569;52.018;5.584;2022-11-20T05:52:18;17.20;;;11.25;;
67768;SDS011;54569;52.018;5.584;2022-11-20T05:54:44;17.58;;;10.60;;
67768;SDS011;54569;52.018;5.584;2022-11-20T05:57:10;15.00;;;9.73;;
67768;SDS011;54569;52.018;5.584;2022-11-20T05:59:35;17.50;;;11.70;;
67768;SDS011;54569;52.018;5.584;2022-11-20T06:02:01;18.23;;;10.15;;
67768;SDS011;54569;52.018;5.584;2022-11-20T06:04:27;17.65;;;11.57;;
67768;SDS011;54569;52.018;5.584;2022-11-20T06:06:52;17.25;;;10.63;;
67768;SDS011;54569;52.018;5.584;2022-11-20T06:09:18;17.02;;;10.88;;
67768;SDS011;54569;52.018;5.584;2022-11-20T06:11:43;14.75;;;10.02;;
67768;SDS011;54569;52.018;5.584;2022-11-20T06:14:09;18.38;;;11.73;;
67768;SDS011;54569;52.018;5.584;2022-11-20T06:16:35;16.27;;;9.80;;
67768;SDS011;54569;52.018;5.584;2022-11-20T06:19:00;16.95;;;10.57;;
67768;SDS011;54569;52.018;5.584;2022-11-20T06:21:26;15.68;;;9.85;;
67768;SDS011;54569;52.018;5.584;2022-11-20T06:23:52;15.20;;;10.18;;
67768;SDS011;54569;52.018;5.584;2022-11-20T06:26:19;15.93;;;9.95;;
67768;SDS011;54569;52.018;5.584;2022-11-20T06:28:47;15.00;;;10.15;;
67768;SDS011;54569;52.018;5.584;2022-11-20T06:31:14;17.17;;;10.93;;
67768;SDS011;54569;52.018;5.584;2022-11-20T06:33:41;17.10;;;11.25;;
67768;SDS011;54569;52.018;5.584;2022-11-20T06:36:09;17.33;;;11.25;;
67768;SDS011;54569;52.018;5.584;2022-11-20T06:38:35;16.02;;;10.13;;
67768;SDS011;54569;52.018;5.584;2022-11-20T06:41:01;16.38;;;10.30;;
67768;SDS011;54569;52.018;5.584;2022-11-20T06:43:28;16.45;;;10.85;;
67768;SDS011;54569;52.018;5.584;2022-11-20T06:45:55;16.30;;;10.98;;
67768;SDS011;54569;52.018;5.584;2022-11-20T06:48:22;17.92;;;10.70;;
67768;SDS011;54569;52.018;5.584;2022-11-20T06:50:49;18.23;;;10.63;;
67768;SDS011;54569;52.018;5.584;2022-11-20T06:53:14;15.90;;;11.15;;
67768;SDS011;54569;52.018;5.584;2022-11-20T06:55:44;16.17;;;10.35;;
67768;SDS011;54569;52.018;5.584;2022-11-20T06:58:11;15.80;;;10.25;;
67768;SDS011;54569;52.018;5.584;2022-11-20T07:00:38;19.02;;;11.93;;
67768;SDS011;54569;52.018;5.584;2022-11-20T07:03:04;33.25;;;25.33;;
67768;SDS011;54569;52.018;5.584;2022-11-20T07:05:30;17.92;;;11.93;;
67768;SDS011;54569;52.018;5.584;2022-11-20T07:07:56;20.70;;;14.25;;
67768;SDS011;54569;52.018;5.584;2022-11-20T07:10:22;20.83;;;15.20;;
67768;SDS011;54569;52.018;5.584;2022-11-20T07:12:49;19.25;;;12.35;;
67768;SDS011;54569;52.018;5.584;2022-11-20T07:15:16;17.02;;;11.32;;
67768;SDS011;54569;52.018;5.584;2022-11-20T07:17:42;23.25;;;15.18;;
67768;SDS011;54569;52.018;5.584;2022-11-20T07:20:07;19.17;;;11.20;;
67768;SDS011;54569;52.018;5.584;2022-11-20T07:22:34;17.65;;;11.02;;
67768;SDS011;54569;52.018;5.584;2022-11-20T07:24:59;16.25;;;11.05;;
67768;SDS011;54569;52.018;5.584;2022-11-20T07:27:25;18.20;;;10.63;;
67768;SDS011;54569;52.018;5.584;2022-11-20T07:29:51;16.83;;;10.48;;
67768;SDS011;54569;52.018;5.584;2022-11-20T07:32:16;14.38;;;10.73;;
67768;SDS011;54569;52.018;5.584;2022-11-20T07:34:42;20.50;;;12.00;;
67768;SDS011;54569;52.018;5.584;2022-11-20T07:37:08;15.50;;;10.23;;
67768;SDS011;54569;52.018;5.584;2022-11-20T07:39:33;18.33;;;10.55;;
67768;SDS011;54569;52.018;5.584;2022-11-20T07:41:59;16.73;;;10.98;;
67768;SDS011;54569;52.018;5.584;2022-11-20T07:44:24;19.33;;;10.48;;
67768;SDS011;54569;52.018;5.584;2022-11-20T07:46:50;17.63;;;10.82;;
67768;SDS011;54569;52.018;5.584;2022-11-20T07:49:16;14.95;;;9.90;;
67768;SDS011;54569;52.018;5.584;2022-11-20T07:51:41;18.45;;;10.60;;
67768;SDS011;54569;52.018;5.584;2022-11-20T07:54:07;18.23;;;10.98;;
67768;SDS011;54569;52.018;5.584;2022-11-20T07:56:32;24.30;;;12.35;;
67768;SDS011;54569;52.018;5.584;2022-11-20T07:58:58;24.60;;;11.80;;
67768;SDS011;54569;52.018;5.584;2022-11-20T08:01:24;16.10;;;9.68;;
67768;SDS011;54569;52.018;5.584;2022-11-20T08:03:49;17.40;;;10.68;;
67768;SDS011;54569;52.018;5.584;2022-11-20T08:06:15;16.73;;;10.63;;
67768;SDS011;54569;52.018;5.584;2022-11-20T08:08:40;15.00;;;8.93;;
67768;SDS011;54569;52.018;5.584;2022-11-20T08:11:06;15.10;;;9.57;;
67768;SDS011;54569;52.018;5.584;2022-11-20T08:13:50;13.80;;;8.68;;
67768;SDS011;54569;52.018;5.584;2022-11-20T08:16:34;13.45;;;9.25;;
67768;SDS011;54569;52.018;5.584;2022-11-20T08:19:00;17.13;;;8.82;;
67768;SDS011;54569;52.018;5.584;2022-11-20T08:21:26;17.00;;;10.50;;
67768;SDS011;54569;52.018;5.584;2022-11-20T08:23:51;16.15;;;10.55;;
67768;SDS011;54569;52.018;5.584;2022-11-20T08:26:17;14.95;;;9.85;;
67768;SDS011;54569;52.018;5.584;2022-11-20T08:28:42;14.43;;;9.50;;
67768;SDS011;54569;52.018;5.584;2022-11-20T08:31:09;14.35;;;9.95;;
67768;SDS011;54569;52.018;5.584;2022-11-20T08:33:34;14.55;;;10.27;;
67768;SDS011;54569;52.018;5.584;2022-11-20T08:36:00;15.10;;;9.15;;
67768;SDS011;54569;52.018;5.584;2022-11-20T08:38:29;13.95;;;8.73;;
67768;SDS011;54569;52.018;5.584;2022-11-20T08:40:56;11.82;;;8.88;;
67768;SDS011;54569;52.018;5.584;2022-11-20T08:43:41;12.60;;;8.55;;
67768;SDS011;54569;52.018;5.584;2022-11-20T08:46:07;13.23;;;9.40;;
67768;SDS011;54569;52.018;5.584;2022-11-20T08:48:32;15.85;;;10.10;;
67768;SDS011;54569;52.018;5.584;2022-11-20T08:50:58;13.52;;;9.90;;
67768;SDS011;54569;52.018;5.584;2022-11-20T08:53:24;15.20;;;9.75;;
67768;SDS011;54569;52.018;5.584;2022-11-20T08:55:50;13.32;;;9.43;;
67768;SDS011;54569;52.018;5.584;2022-11-20T08:58:16;14.98;;;10.80;;
67768;SDS011;54569;52.018;5.584;2022-11-20T09:00:41;14.35;;;10.73;;
67768;SDS011;54569;52.018;5.584;2022-11-20T09:03:07;15.68;;;10.13;;
67768;SDS011;54569;52.018;5.584;2022-11-20T09:05:33;16.23;;;10.35;;
67768;SDS011;54569;52.018;5.584;2022-11-20T09:07:58;14.32;;;10.63;;
67768;SDS011;54569;52.018;5.584;2022-11-20T09:10:24;15.70;;;11.15;;
67768;SDS011;54569;52.018;5.584;2022-11-20T09:12:53;13.18;;;10.00;;
67768;SDS011;54569;52.018;5.584;2022-11-20T09:15:23;16.17;;;10.77;;
67768;SDS011;54569;52.018;5.584;2022-11-20T09:20:19;15.38;;;10.98;;
67768;SDS011;54569;52.018;5.584;2022-11-20T09:22:45;19.23;;;11.60;;
67768;SDS011;54569;52.018;5.584;2022-11-20T09:25:11;19.23;;;12.40;;
67768;SDS011;54569;52.018;5.584;2022-11-20T09:27:36;18.10;;;12.98;;
67768;SDS011;54569;52.018;5.584;2022-11-20T09:30:02;22.95;;;14.43;;
67768;SDS011;54569;52.018;5.584;2022-11-20T09:32:28;17.98;;;12.85;;
67768;SDS011;54569;52.018;5.584;2022-11-20T09:34:54;19.77;;;13.38;;
67768;SDS011;54569;52.018;5.584;2022-11-20T09:37:20;18.38;;;13.20;;
67768;SDS011;54569;52.018;5.584;2022-11-20T09:39:46;19.75;;;12.93;;
67768;SDS011;54569;52.018;5.584;2022-11-20T09:45:02;18.33;;;12.40;;
67768;SDS011;54569;52.018;5.584;2022-11-20T09:56:22;21.00;;;13.10;;
67768;SDS011;54569;52.018;5.584;2022-11-20T09:58:50;18.98;;;12.57;;
67768;SDS011;54569;52.018;5.584;2022-11-20T10:01:20;22.17;;;13.05;;
67768;SDS011;54569;52.018;5.584;2022-11-20T10:03:56;19.75;;;13.00;;
67768;SDS011;54569;52.018;5.584;2022-11-20T10:06:29;19.67;;;13.05;;
67768;SDS011;54569;52.018;5.584;2022-11-20T10:09:23;18.23;;;13.10;;
67768;SDS011;54569;52.018;5.584;2022-11-20T10:19:56;22.15;;;13.70;;
67768;SDS011;54569;52.018;5.584;2022-11-20T10:27:45;19.38;;;12.93;;
67768;SDS011;54569;52.018;5.584;2022-11-20T10:30:15;24.00;;;14.93;;
67768;SDS011;54569;52.018;5.584;2022-11-20T10:32:45;21.45;;;14.38;;
67768;SDS011;54569;52.018;5.584;2022-11-20T10:37:41;23.83;;;15.25;;
67768;SDS011;54569;52.018;5.584;2022-11-20T10:42:49;21.08;;;14.57;;
67768;SDS011;54569;52.018;5.584;2022-11-20T10:51:03;22.15;;;16.27;;
67768;SDS011;54569;52.018;5.584;2022-11-20T10:56:40;23.00;;;15.77;;
67768;SDS011;54569;52.018;5.584;2022-11-20T10:59:19;24.85;;;17.27;;
67768;SDS011;54569;52.018;5.584;2022-11-20T11:01:54;24.42;;;15.43;;
67768;SDS011;54569;52.018;5.584;2022-11-20T11:07:04;19.98;;;15.07;;
67768;SDS011;54569;52.018;5.584;2022-11-20T11:09:39;26.90;;;17.50;;
67768;SDS011;54569;52.018;5.584;2022-11-20T11:12:10;25.27;;;15.85;;
67768;SDS011;54569;52.018;5.584;2022-11-20T11:14:47;23.13;;;15.32;;
67768;SDS011;54569;52.018;5.584;2022-11-20T11:20:00;28.23;;;17.58;;
67768;SDS011;54569;52.018;5.584;2022-11-20T11:22:28;24.95;;;16.38;;
67768;SDS011;54569;52.018;5.584;2022-11-20T11:24:58;24.50;;;16.30;;
67768;SDS011;54569;52.018;5.584;2022-11-20T11:27:24;24.13;;;16.25;;
67768;SDS011;54569;52.018;5.584;2022-11-20T11:29:50;22.73;;;16.13;;
67768;SDS011;54569;52.018;5.584;2022-11-20T11:32:46;22.77;;;15.73;;
67768;SDS011;54569;52.018;5.584;2022-11-20T11:35:23;26.50;;;16.92;;
67768;SDS011;54569;52.018;5.584;2022-11-20T11:37:51;25.70;;;15.65;;
67768;SDS011;54569;52.018;5.584;2022-11-20T11:40:20;22.67;;;16.10;;
67768;SDS011;54569;52.018;5.584;2022-11-20T11:42:57;21.25;;;15.30;;
67768;SDS011;54569;52.018;5.584;2022-11-20T11:45:25;24.80;;;16.73;;
67768;SDS011;54569;52.018;5.584;2022-11-20T11:47:52;23.42;;;15.38;;
67768;SDS011;54569;52.018;5.584;2022-11-20T11:50:27;25.77;;;15.90;;
67768;SDS011;54569;52.018;5.584;2022-11-20T11:53:12;26.70;;;16.20;;
67768;SDS011;54569;52.018;5.584;2022-11-20T12:04:12;24.23;;;17.13;;
67768;SDS011;54569;52.018;5.584;2022-11-20T12:06:50;27.67;;;16.98;;
67768;SDS011;54569;52.018;5.584;2022-11-20T12:09:21;23.45;;;15.65;;
67768;SDS011;54569;52.018;5.584;2022-11-20T12:11:51;25.60;;;16.35;;
67768;SDS011;54569;52.018;5.584;2022-11-20T12:14:35;26.27;;;16.38;;
67768;SDS011;54569;52.018;5.584;2022-11-20T12:17:04;23.85;;;15.98;;
67768;SDS011;54569;52.018;5.584;2022-11-20T12:19:33;24.60;;;16.02;;
67768;SDS011;54569;52.018;5.584;2022-11-20T12:22:22;26.25;;;17.02;;
67768;SDS011;54569;52.018;5.584;2022-11-20T12:25:07;27.58;;;17.38;;
67768;SDS011;54569;52.018;5.584;2022-11-20T12:55:16;24.25;;;16.63;;
67768;SDS011;54569;52.018;5.584;2022-11-20T12:57:53;24.77;;;15.52;;
67768;SDS011;54569;52.018;5.584;2022-11-20T13:00:47;22.17;;;15.65;;
67768;SDS011;54569;52.018;5.584;2022-11-20T13:03:56;29.48;;;17.02;;
67768;SDS011;54569;52.018;5.584;2022-11-20T13:06:32;26.52;;;17.17;;
67768;SDS011;54569;52.018;5.584;2022-11-20T13:08:58;25.20;;;16.05;;
67768;SDS011;54569;52.018;5.584;2022-11-20T13:11:31;25.05;;;17.17;;
67768;SDS011;54569;52.018;5.584;2022-11-20T13:14:50;24.00;;;15.68;;
67768;SDS011;54569;52.018;5.584;2022-11-20T13:17:14;28.50;;;16.63;;
67768;SDS011;54569;52.018;5.584;2022-11-20T13:19:53;26.95;;;16.52;;
67768;SDS011;54569;52.018;5.584;2022-11-20T13:22:27;26.17;;;16.63;;
67768;SDS011;54569;52.018;5.584;2022-11-20T13:24:54;26.70;;;16.70;;
67768;SDS011;54569;52.018;5.584;2022-11-20T13:27:21;27.77;;;16.33;;
67768;SDS011;54569;52.018;5.584;2022-11-20T13:30:01;24.55;;;15.07;;
67768;SDS011;54569;52.018;5.584;2022-11-20T13:32:47;28.83;;;17.60;;
67768;SDS011;54569;52.018;5.584;2022-11-20T13:35:24;27.05;;;16.08;;
67768;SDS011;54569;52.018;5.584;2022-11-20T13:38:08;28.20;;;17.50;;
67768;SDS011;54569;52.018;5.584;2022-11-20T13:40:50;30.23;;;17.25;;
67768;SDS011;54569;52.018;5.584;2022-11-20T13:45:55;31.83;;;17.42;;
67768;SDS011;54569;52.018;5.584;2022-11-20T13:48:22;31.27;;;18.30;;
67768;SDS011;54569;52.018;5.584;2022-11-20T13:50:54;35.40;;;19.15;;
67768;SDS011;54569;52.018;5.584;2022-11-20T13:56:24;31.83;;;18.17;;
67768;SDS011;54569;52.018;5.584;2022-11-20T13:58:56;32.10;;;18.42;;
67768;SDS011;54569;52.018;5.584;2022-11-20T14:01:25;27.17;;;17.58;;
67768;SDS011;54569;52.018;5.584;2022-11-20T14:03:54;29.90;;;17.67;;
67768;SDS011;54569;52.018;5.584;2022-11-20T14:06:26;28.20;;;18.40;;
67768;SDS011;54569;52.018;5.584;2022-11-20T14:08:56;30.13;;;18.58;;
67768;SDS011;54569;52.018;5.584;2022-11-20T14:11:24;27.20;;;17.77;;
67768;SDS011;54569;52.018;5.584;2022-11-20T14:13:55;30.02;;;18.65;;
67768;SDS011;54569;52.018;5.584;2022-11-20T14:16:28;31.60;;;18.50;;
67768;SDS011;54569;52.018;5.584;2022-11-20T14:18:56;25.67;;;16.70;;
67768;SDS011;54569;52.018;5.584;2022-11-20T14:21:36;25.70;;;17.58;;
67768;SDS011;54569;52.018;5.584;2022-11-20T14:24:05;29.27;;;17.73;;
67768;SDS011;54569;52.018;5.584;2022-11-20T14:26:32;29.38;;;17.90;;
67768;SDS011;54569;52.018;5.584;2022-11-20T14:28:58;27.25;;;18.05;;
67768;SDS011;54569;52.018;5.584;2022-11-20T14:31:25;26.80;;;17.50;;
67768;SDS011;54569;52.018;5.584;2022-11-20T14:33:53;31.75;;;19.30;;
67768;SDS011;54569;52.018;5.584;2022-11-20T14:36:20;30.63;;;18.55;;
67768;SDS011;54569;52.018;5.584;2022-11-20T14:38:48;30.65;;;18.08;;
67768;SDS011;54569;52.018;5.584;2022-11-20T14:41:19;28.10;;;18.55;;
67768;SDS011;54569;52.018;5.584;2022-11-20T14:43:58;29.58;;;17.90;;
67768;SDS011;54569;52.018;5.584;2022-11-20T14:46:25;30.35;;;19.23;;
67768;SDS011;54569;52.018;5.584;2022-11-20T14:48:56;34.00;;;19.65;;
67768;SDS011;54569;52.018;5.584;2022-11-20T14:54:19;32.92;;;19.23;;
67768;SDS011;54569;52.018;5.584;2022-11-20T14:57:01;31.17;;;18.85;;
67768;SDS011;54569;52.018;5.584;2022-11-20T14:59:32;34.60;;;20.05;;
67768;SDS011;54569;52.018;5.584;2022-11-20T15:04:29;34.38;;;20.17;;
67768;SDS011;54569;52.018;5.584;2022-11-20T15:06:55;33.20;;;19.27;;
67768;SDS011;54569;52.018;5.584;2022-11-20T15:09:22;34.80;;;18.80;;
67768;SDS011;54569;52.018;5.584;2022-11-20T15:11:53;36.33;;;20.73;;
67768;SDS011;54569;52.018;5.584;2022-11-20T15:14:20;35.15;;;20.65;;
67768;SDS011;54569;52.018;5.584;2022-11-20T15:16:47;38.30;;;21.25;;
67768;SDS011;54569;52.018;5.584;2022-11-20T15:19:23;34.28;;;19.70;;
67768;SDS011;54569;52.018;5.584;2022-11-20T15:21:50;34.13;;;20.02;;
67768;SDS011;54569;52.018;5.584;2022-11-20T15:24:16;36.40;;;18.77;;
67768;SDS011;54569;52.018;5.584;2022-11-20T15:26:42;40.83;;;20.50;;
67768;SDS011;54569;52.018;5.584;2022-11-20T15:29:09;34.33;;;19.90;;
67768;SDS011;54569;52.018;5.584;2022-11-20T15:31:37;35.75;;;20.40;;
67768;SDS011;54569;52.018;5.584;2022-11-20T15:34:15;31.05;;;20.33;;
67768;SDS011;54569;52.018;5.584;2022-11-20T15:36:41;42.17;;;21.35;;
67768;SDS011;54569;52.018;5.584;2022-11-20T15:39:08;35.28;;;19.95;;
67768;SDS011;54569;52.018;5.584;2022-11-20T15:41:34;39.30;;;23.10;;
67768;SDS011;54569;52.018;5.584;2022-11-20T15:44:01;40.30;;;22.23;;
67768;SDS011;54569;52.018;5.584;2022-11-20T15:46:27;34.85;;;20.35;;
67768;SDS011;54569;52.018;5.584;2022-11-20T15:48:58;35.38;;;20.88;;
67768;SDS011;54569;52.018;5.584;2022-11-20T15:51:37;37.33;;;21.17;;
67768;SDS011;54569;52.018;5.584;2022-11-20T15:54:13;35.38;;;20.15;;
67768;SDS011;54569;52.018;5.584;2022-11-20T15:56:41;40.80;;;22.08;;
67768;SDS011;54569;52.018;5.584;2022-11-20T15:59:06;35.70;;;20.73;;
67768;SDS011;54569;52.018;5.584;2022-11-20T16:01:32;37.80;;;20.48;;
67768;SDS011;54569;52.018;5.584;2022-11-20T16:03:59;34.42;;;20.58;;
67768;SDS011;54569;52.018;5.584;2022-11-20T16:06:25;33.47;;;21.88;;
67768;SDS011;54569;52.018;5.584;2022-11-20T16:08:50;35.88;;;21.33;;